Time;durP1;ratioP1;P1;durP2;ratioP2;P2;SDS_P1;SDS_P2;PMS_P1;PMS_P2;Temp;Humidity;BMP_temperature;BMP_pressure;BME280_temperature;BME280_humidity;BME280_pressure;Samples;Min_cycle;Max_cycle;Signal;HPM_P1;HPM_P2
2022/10/27 00:00:38;;;;;;;10.77;3.35;;;13.60;99.90;;;;;;5052640;28;20773;-66
2022/10/27 00:03:04;;;;;;;7.50;3.53;;;13.60;99.90;;;;;;5053286;28;20049;-66
2022/10/27 00:05:30;;;;;;;8.98;3.65;;;13.60;99.90;;;;;;5053263;28;20051;-67
2022/10/27 00:07:55;;;;;;;9.50;3.42;;;13.60;99.90;;;;;;5051879;28;20747;-67
2022/10/27 00:10:21;;;;;;;7.47;2.90;;;13.60;99.90;;;;;;5051314;28;20053;-67
2022/10/27 00:12:47;;;;;;;;;;;13.60;99.90;;;;;;5066015;28;20475;-66
2022/10/27 00:15:13;;;;;;;9.05;3.35;;;13.50;99.90;;;;;;5053348;28;20023;-67
2022/10/27 00:17:39;;;;;;;6.40;3.17;;;13.50;99.90;;;;;;5052180;28;20063;-66
2022/10/27 00:20:07;;;;;;;7.63;3.30;;;13.50;99.90;;;;;;5053015;28;20057;-67
2022/10/27 00:22:33;;;;;;;11.95;4.22;;;13.50;99.90;;;;;;5051936;28;20079;-69
2022/10/27 00:24:59;;;;;;;7.43;3.88;;;13.50;99.90;;;;;;5051662;28;20052;-69
2022/10/27 00:27:24;;;;;;;8.10;3.92;;;13.50;99.90;;;;;;5052885;28;20041;-67
2022/10/27 00:29:50;;;;;;;7.60;3.58;;;13.50;99.90;;;;;;5052487;28;20041;-66
2022/10/27 00:32:15;;;;;;;10.18;3.70;;;13.40;99.90;;;;;;5052013;28;20512;-68
2022/10/27 00:34:41;;;;;;;11.13;3.88;;;13.40;99.90;;;;;;5052041;28;20768;-67
2022/10/27 00:37:07;;;;;;;8.32;4.03;;;13.50;99.90;;;;;;5051948;28;20053;-68
2022/10/27 00:39:33;;;;;;;12.02;4.20;;;13.50;99.90;;;;;;5066756;28;20056;-67
2022/10/27 00:41:58;;;;;;;8.07;3.60;;;13.60;99.90;;;;;;5051313;28;20048;-67
2022/10/27 00:44:42;;;;;;;10.48;4.03;;;13.70;99.90;;;;;;5052976;28;20402;-68
2022/10/27 00:47:16;;;;;;;10.50;4.18;;;13.70;99.90;;;;;;5052663;28;20057;-67
2022/10/27 00:50:18;;;;;;;8.18;3.30;;;13.70;99.90;;;;;;5051819;28;20091;-66
2022/10/27 00:52:56;;;;;;;7.43;3.45;;;13.70;99.90;;;;;;5050998;28;20697;-67
2022/10/27 00:55:34;;;;;;;12.00;4.60;;;13.70;99.90;;;;;;5051529;28;20052;-66
2022/10/27 00:58:09;;;;;;;11.27;4.00;;;13.70;99.90;;;;;;5051707;28;20048;-66
2022/10/27 01:00:38;;;;;;;10.10;3.72;;;13.70;99.90;;;;;;5052014;28;20120;-68
2022/10/27 01:03:06;;;;;;;10.68;4.32;;;13.80;99.90;;;;;;5051856;28;20045;-68
2022/10/27 01:05:33;;;;;;;13.85;4.35;;;13.90;99.90;;;;;;5052329;28;20053;-67
2022/10/27 01:08:02;;;;;;;11.95;4.20;;;14.00;99.90;;;;;;5050348;28;20040;-68
2022/10/27 01:10:29;;;;;;;13.68;4.30;;;14.00;99.90;;;;;;5050820;28;20486;-68
2022/10/27 01:12:55;;;;;;;7.43;3.60;;;14.10;99.90;;;;;;5066340;28;20041;-68
2022/10/27 01:15:31;;;;;;;10.68;4.10;;;14.20;99.90;;;;;;5051752;28;20540;-67
2022/10/27 01:18:09;;;;;;;8.60;4.00;;;14.30;99.90;;;;;;5051040;28;20061;-67
2022/10/27 01:20:53;;;;;;;9.48;3.90;;;14.30;99.90;;;;;;5051891;28;20092;-67
2022/10/27 01:23:28;;;;;;;7.75;3.53;;;14.40;99.90;;;;;;5051052;28;20371;-66
2022/10/27 01:26:36;;;;;;;11.25;3.67;;;14.40;99.90;;;;;;5049667;28;20052;-67
2022/10/27 01:29:32;;;;;;;15.10;4.05;;;14.40;99.90;;;;;;5051346;28;20033;-67
2022/10/27 01:32:25;;;;;;;8.10;3.47;;;14.40;99.90;;;;;;5031462;28;20436;-66
2022/10/27 01:35:03;;;;;;;13.45;4.13;;;14.50;99.90;;;;;;5046284;28;20124;-67
2022/10/27 01:37:58;;;;;;;8.73;4.38;;;14.40;99.90;;;;;;5050873;28;20041;-69
2022/10/27 01:40:30;;;;;;;12.98;3.80;;;14.40;99.90;;;;;;5050753;28;20053;-68
2022/10/27 01:43:03;;;;;;;8.18;4.28;;;14.40;99.90;;;;;;5050915;28;20071;-66
2022/10/27 01:45:33;;;;;;;10.15;3.60;;;14.40;99.90;;;;;;5048586;28;20418;-68
2022/10/27 01:47:59;;;;;;;8.75;3.83;;;14.40;99.90;;;;;;5050770;28;20044;-66
2022/10/27 01:50:29;;;;;;;8.90;4.00;;;14.40;99.90;;;;;;5050326;28;20045;-67
2022/10/27 01:52:55;;;;;;;14.80;4.40;;;14.30;99.90;;;;;;5049798;28;20052;-67
2022/10/27 01:55:34;;;;;;;10.02;4.80;;;14.30;99.90;;;;;;5049606;28;20045;-66
2022/10/27 01:58:19;;;;;;;10.88;4.20;;;14.30;99.90;;;;;;5049292;28;20040;-67
2022/10/27 02:01:09;;;;;;;14.18;4.22;;;14.30;99.90;;;;;;5050266;28;20060;-69
2022/10/27 02:03:58;;;;;;;9.10;4.28;;;14.30;99.90;;;;;;5050924;28;20554;-68
2022/10/27 02:06:32;;;;;;;14.55;4.68;;;14.30;99.90;;;;;;5050420;28;20551;-66
2022/10/27 02:09:11;;;;;;;12.27;4.32;;;14.30;99.90;;;;;;5044595;28;20040;-66
2022/10/27 02:11:41;;;;;;;9.43;4.10;;;14.30;99.90;;;;;;5050605;28;20155;-67
2022/10/27 02:14:07;;;;;;;14.10;4.32;;;14.30;99.90;;;;;;5049976;28;20080;-68
2022/10/27 02:16:39;;;;;;;9.55;3.67;;;14.30;99.90;;;;;;5051142;28;20048;-67
2022/10/27 02:19:16;;;;;;;16.27;4.30;;;14.20;99.90;;;;;;5049035;28;20106;-67
2022/10/27 02:21:44;;;;;;;10.68;4.05;;;14.20;99.90;;;;;;5051002;28;20060;-67
2022/10/27 02:24:10;;;;;;;8.45;4.53;;;14.20;99.90;;;;;;5048630;28;20049;-67
2022/10/27 02:26:35;;;;;;;;;;;14.20;99.90;;;;;;5050928;28;20049;-67
2022/10/27 02:29:09;;;;;;;11.30;4.53;;;14.20;99.90;;;;;;5050214;28;19927;-67
2022/10/27 02:31:38;;;;;;;8.27;4.20;;;14.20;99.90;;;;;;5050632;28;20482;-67
2022/10/27 02:34:05;;;;;;;14.13;4.15;;;14.10;99.90;;;;;;5049811;28;20099;-66
2022/10/27 02:36:32;;;;;;;9.55;4.68;;;14.00;99.90;;;;;;5066152;28;20057;-66
2022/10/27 02:38:57;;;;;;;13.15;4.45;;;14.00;99.90;;;;;;5046381;28;20128;-69
2022/10/27 02:41:23;;;;;;;10.02;4.38;;;13.90;99.90;;;;;;5040964;28;20198;-70
2022/10/27 02:43:49;;;;;;;12.88;4.47;;;13.90;99.90;;;;;;5029102;28;20080;-69
2022/10/27 02:46:15;;;;;;;13.88;4.95;;;13.90;99.90;;;;;;5037669;28;20124;-67
2022/10/27 02:48:40;;;;;;;10.45;3.80;;;13.80;99.90;;;;;;5050326;28;20049;-66
2022/10/27 02:51:06;;;;;;;9.43;4.70;;;13.80;99.90;;;;;;5049615;28;20056;-66
2022/10/27 02:53:32;;;;;;;10.82;3.95;;;13.70;99.90;;;;;;5049485;28;20045;-66
2022/10/27 02:55:57;;;;;;;11.75;4.50;;;13.70;99.90;;;;;;5048744;28;20068;-66
2022/10/27 02:58:23;;;;;;;15.43;5.63;;;13.70;99.90;;;;;;5050144;28;20084;-66
2022/10/27 03:00:54;;;;;;;12.02;4.13;;;13.60;99.90;;;;;;5050317;28;20386;-69
2022/10/27 03:03:20;;;;;;;10.77;4.72;;;13.60;99.90;;;;;;5050232;28;20044;-67
2022/10/27 03:05:46;;;;;;;;;;;13.60;99.90;;;;;;5050563;28;20048;-69
2022/10/27 03:08:11;;;;;;;12.50;4.30;;;13.50;99.90;;;;;;5048654;28;19920;-67
2022/10/27 03:10:37;;;;;;;9.15;4.13;;;13.50;99.90;;;;;;5048427;28;20048;-66
2022/10/27 03:13:02;;;;;;;13.52;4.60;;;13.40;99.90;;;;;;5049409;28;20092;-67
2022/10/27 03:15:28;;;;;;;9.23;3.55;;;13.40;99.90;;;;;;5049217;28;20111;-67
2022/10/27 03:17:54;;;;;;;10.20;4.45;;;13.30;99.90;;;;;;5048918;28;20394;-67
2022/10/27 03:20:19;;;;;;;13.70;4.63;;;13.40;99.90;;;;;;5050137;28;20502;-66
2022/10/27 03:22:45;;;;;;;11.07;4.60;;;13.30;99.90;;;;;;5048526;28;20045;-67
2022/10/27 03:25:13;;;;;;;8.60;4.47;;;13.30;99.90;;;;;;5030945;28;20056;-67
2022/10/27 03:27:40;;;;;;;12.80;4.35;;;13.30;99.90;;;;;;5049898;28;20102;-66
2022/10/27 03:30:07;;;;;;;10.60;4.65;;;13.30;99.90;;;;;;5049553;28;20049;-67
2022/10/27 03:32:32;;;;;;;10.65;4.70;;;13.30;99.90;;;;;;5052168;28;20041;-66
2022/10/27 03:34:58;;;;;;;14.35;4.95;;;13.20;99.90;;;;;;5053119;28;20161;-67
2022/10/27 03:37:24;;;;;;;11.63;4.57;;;13.20;99.90;;;;;;5052051;28;20151;-67
2022/10/27 03:39:49;;;;;;;9.32;4.40;;;13.20;99.90;;;;;;5052327;28;20095;-69
2022/10/27 03:42:15;;;;;;;9.95;4.95;;;13.20;99.90;;;;;;5053400;28;20072;-66
2022/10/27 03:44:40;;;;;;;13.93;5.65;;;13.20;99.90;;;;;;5053061;28;20479;-66
2022/10/27 03:47:06;;;;;;;10.25;4.95;;;13.20;99.90;;;;;;5052046;28;20509;-66
2022/10/27 03:49:32;;;;;;;12.57;5.15;;;13.20;99.90;;;;;;5032540;28;20383;-66
2022/10/27 03:51:57;;;;;;;12.85;4.78;;;13.20;99.90;;;;;;5033114;28;20461;-68
2022/10/27 03:54:23;;;;;;;12.43;4.70;;;13.20;99.90;;;;;;5032119;28;20603;-66
2022/10/27 03:56:48;;;;;;;14.20;4.97;;;13.20;99.90;;;;;;5047211;28;20049;-66
2022/10/27 03:59:14;;;;;;;10.88;5.10;;;13.20;99.90;;;;;;5052796;28;20343;-67
2022/10/27 04:01:40;;;;;;;13.00;4.68;;;13.20;99.90;;;;;;5053614;28;20049;-68
2022/10/27 04:04:05;;;;;;;11.73;5.18;;;13.20;99.90;;;;;;5052483;28;20051;-66
2022/10/27 04:06:31;;;;;;;11.75;4.68;;;13.20;99.90;;;;;;5052288;28;20045;-66
2022/10/27 04:08:57;;;;;;;12.60;5.05;;;13.20;99.90;;;;;;5051772;28;20115;-69
2022/10/27 04:11:22;;;;;;;12.98;6.07;;;13.20;99.90;;;;;;5052194;28;20049;-66
2022/10/27 04:13:48;;;;;;;13.82;5.13;;;13.20;99.90;;;;;;5053364;28;20056;-67
2022/10/27 04:16:14;;;;;;;9.80;4.97;;;13.20;99.90;;;;;;5052943;28;20115;-67
2022/10/27 04:18:39;;;;;;;16.80;4.90;;;13.20;99.90;;;;;;5052099;28;20045;-67
2022/10/27 04:21:05;;;;;;;10.52;5.35;;;13.20;99.90;;;;;;5052235;28;20056;-68
2022/10/27 04:23:31;;;;;;;10.85;5.10;;;13.20;99.90;;;;;;5052426;28;20469;-67
2022/10/27 04:25:57;;;;;;;;;;;13.20;99.90;;;;;;5052097;28;20041;-69
2022/10/27 04:28:23;;;;;;;10.63;4.88;;;13.10;99.90;;;;;;5052982;28;19925;-67
2022/10/27 04:30:49;;;;;;;10.65;4.90;;;13.10;99.90;;;;;;5052812;28;20067;-68
2022/10/27 04:33:15;;;;;;;8.45;4.50;;;13.10;99.90;;;;;;5052433;28;20053;-68
2022/10/27 04:35:41;;;;;;;10.80;4.75;;;13.10;99.90;;;;;;5048428;28;20049;-67
2022/10/27 04:38:06;;;;;;;14.10;5.93;;;13.00;99.90;;;;;;5046719;28;20434;-66
2022/10/27 04:40:32;;;;;;;11.15;5.10;;;13.00;99.90;;;;;;5047274;28;20067;-66
2022/10/27 04:42:58;;;;;;;13.35;5.32;;;13.00;99.90;;;;;;5051247;28;20059;-69
2022/10/27 04:45:23;;;;;;;12.25;5.50;;;13.00;99.90;;;;;;5052711;28;20137;-66
2022/10/27 04:47:49;;;;;;;11.52;5.47;;;12.90;99.90;;;;;;5051285;28;20516;-67
2022/10/27 04:50:16;;;;;;;13.70;6.20;;;12.80;99.90;;;;;;5051843;28;20151;-67
2022/10/27 04:52:52;;;;;;;11.05;5.30;;;12.90;99.90;;;;;;5051589;28;20410;-66
2022/10/27 04:55:18;;;;;;;11.80;5.28;;;12.90;99.90;;;;;;5051096;28;20115;-68
2022/10/27 04:57:43;;;;;;;9.60;5.15;;;12.90;99.90;;;;;;5052410;28;20128;-66
2022/10/27 05:00:11;;;;;;;13.90;5.55;;;12.90;99.90;;;;;;5049027;28;20052;-68
2022/10/27 05:02:36;;;;;;;11.60;4.97;;;12.80;99.90;;;;;;5042764;28;20092;-67
2022/10/27 05:05:02;;;;;;;16.13;5.70;;;12.90;99.90;;;;;;5051594;28;20089;-67
2022/10/27 05:07:28;;;;;;;14.27;5.65;;;12.90;99.90;;;;;;5050957;28;20083;-68
2022/10/27 05:09:53;;;;;;;13.70;5.70;;;12.80;99.90;;;;;;5051014;28;20045;-67
2022/10/27 05:12:19;;;;;;;11.30;5.20;;;12.80;99.90;;;;;;5050405;28;20102;-66
2022/10/27 05:14:45;;;;;;;12.77;5.20;;;12.80;99.90;;;;;;5052301;28;20048;-66
2022/10/27 05:17:10;;;;;;;10.50;5.35;;;12.80;99.90;;;;;;5051454;28;20045;-66
2022/10/27 05:19:36;;;;;;;11.10;5.30;;;12.90;99.90;;;;;;5049149;28;20141;-66
2022/10/27 05:22:02;;;;;;;11.18;5.68;;;12.90;99.90;;;;;;5051598;28;20045;-69
2022/10/27 05:24:27;;;;;;;27.27;6.47;;;12.80;99.90;;;;;;5036697;28;20083;-66
2022/10/27 05:26:53;;;;;;;11.00;5.63;;;12.90;99.90;;;;;;5051790;28;20523;-67
2022/10/27 05:29:18;;;;;;;11.20;5.68;;;12.90;99.90;;;;;;5031853;28;20129;-67
2022/10/27 05:31:44;;;;;;;14.65;6.32;;;12.90;99.90;;;;;;5052034;28;20085;-67
2022/10/27 05:34:10;;;;;;;17.63;5.95;;;12.90;99.90;;;;;;5050868;28;20471;-66
2022/10/27 05:36:35;;;;;;;16.23;6.35;;;12.90;99.90;;;;;;5051497;28;20053;-67
2022/10/27 05:39:01;;;;;;;16.23;5.82;;;12.90;99.90;;;;;;5043439;28;20041;-69
2022/10/27 05:41:27;;;;;;;14.40;6.28;;;12.90;99.90;;;;;;5045776;28;20052;-67
2022/10/27 05:43:52;;;;;;;15.05;5.68;;;12.90;99.90;;;;;;5051333;28;20506;-66
2022/10/27 05:46:18;;;;;;;13.20;5.65;;;12.90;99.90;;;;;;5051044;28;20576;-67
2022/10/27 05:48:44;;;;;;;12.25;5.70;;;12.90;99.90;;;;;;5051028;28;20037;-67
2022/10/27 05:51:10;;;;;;;16.10;6.90;;;12.90;99.90;;;;;;5050648;28;20121;-67
2022/10/27 05:53:35;;;;;;;14.93;6.07;;;13.00;99.90;;;;;;5050041;28;20546;-68
2022/10/27 05:56:01;;;;;;;12.48;5.72;;;13.00;99.90;;;;;;5049966;28;20045;-69
2022/10/27 05:58:27;;;;;;;15.13;6.20;;;13.00;99.90;;;;;;5050900;28;20052;-66
2022/10/27 06:00:57;;;;;;;17.88;6.35;;;13.00;99.90;;;;;;5051346;28;20080;-66
2022/10/27 06:03:23;;;;;;;13.73;5.60;;;13.00;99.90;;;;;;5048137;28;20192;-67
2022/10/27 06:05:50;;;;;;;19.30;6.50;;;13.00;99.90;;;;;;5050962;28;20041;-67
2022/10/27 06:08:17;;;;;;;14.32;6.38;;;13.00;99.90;;;;;;5049318;28;20466;-67
2022/10/27 06:10:43;;;;;;;13.63;5.95;;;13.00;99.90;;;;;;5050214;28;20049;-66
2022/10/27 06:13:10;;;;;;;14.40;5.80;;;13.00;99.90;;;;;;5050167;28;20049;-68
2022/10/27 06:15:37;;;;;;;14.93;6.43;;;13.00;99.90;;;;;;5050740;28;20037;-67
2022/10/27 06:18:03;;;;;;;11.63;5.85;;;13.00;99.90;;;;;;5050169;28;20611;-69
2022/10/27 06:20:29;;;;;;;12.57;6.45;;;13.00;99.90;;;;;;5050450;28;20355;-66
2022/10/27 06:22:55;;;;;;;15.77;6.03;;;13.00;99.90;;;;;;5050031;28;20580;-67
2022/10/27 06:25:21;;;;;;;12.70;5.88;;;13.00;99.90;;;;;;5046923;28;20087;-66
2022/10/27 06:27:46;;;;;;;13.63;6.50;;;13.00;99.90;;;;;;5048990;28;20057;-66
2022/10/27 06:30:12;;;;;;;14.18;5.40;;;12.90;99.90;;;;;;5047211;28;20036;-70
2022/10/27 06:32:38;;;;;;;;;;;13.00;99.90;;;;;;5050372;28;20045;-67
2022/10/27 06:35:05;;;;;;;16.17;6.07;;;13.00;99.90;;;;;;5050264;28;19928;-69
2022/10/27 06:37:30;;;;;;;18.65;6.43;;;13.00;99.90;;;;;;5049258;28;20049;-68
2022/10/27 06:39:56;;;;;;;16.52;5.85;;;12.90;99.90;;;;;;5036002;28;20048;-70
2022/10/27 06:42:23;;;;;;;17.02;6.10;;;12.90;99.90;;;;;;5070399;28;20509;-69
2022/10/27 06:44:49;;;;;;;13.63;5.65;;;12.90;99.90;;;;;;5032751;28;20507;-68
2022/10/27 06:47:15;;;;;;;12.80;5.38;;;12.90;99.90;;;;;;5033635;28;20055;-70
2022/10/27 06:49:41;;;;;;;12.80;5.95;;;13.00;99.90;;;;;;5048359;28;20127;-71
2022/10/27 06:52:06;;;;;;;11.00;5.72;;;13.00;99.90;;;;;;5041867;28;20559;-72
2022/10/27 06:54:32;;;;;;;12.35;5.55;;;13.00;99.90;;;;;;5034748;28;20108;-69
2022/10/27 06:56:58;;;;;;;16.10;5.80;;;13.00;99.90;;;;;;5037623;28;20546;-69
2022/10/27 06:59:23;;;;;;;17.92;5.70;;;13.10;99.90;;;;;;5044632;28;20512;-69
2022/10/27 07:01:49;;;;;;;13.25;5.65;;;13.10;99.90;;;;;;5044517;28;20049;-71
2022/10/27 07:04:15;;;;;;;14.68;6.38;;;13.20;99.90;;;;;;5044325;28;20052;-71
2022/10/27 07:06:40;;;;;;;11.18;5.18;;;13.20;99.90;;;;;;5040710;28;20076;-69
2022/10/27 07:09:06;;;;;;;15.13;6.22;;;13.30;99.90;;;;;;5035331;28;20042;-72
2022/10/27 07:11:32;;;;;;;15.18;4.95;;;13.30;99.90;;;;;;5032557;28;20290;-66
2022/10/27 07:13:57;;;;;;;14.85;5.90;;;13.30;99.90;;;;;;5032818;28;20045;-66
2022/10/27 07:16:23;;;;;;;12.80;5.40;;;13.30;99.90;;;;;;5044799;28;20425;-66
2022/10/27 07:18:49;;;;;;;13.10;5.50;;;13.40;99.90;;;;;;5032673;28;20068;-66
2022/10/27 07:21:15;;;;;;;12.18;5.70;;;13.40;99.90;;;;;;5039525;28;20060;-66
2022/10/27 07:23:41;;;;;;;15.13;6.68;;;13.40;99.90;;;;;;5032703;28;20049;-68
2022/10/27 07:26:07;;;;;;;10.80;5.50;;;13.50;99.90;;;;;;5041785;28;20123;-69
2022/10/27 07:28:32;;;;;;;13.98;5.88;;;13.60;99.90;;;;;;5028994;28;20337;-67
2022/10/27 07:30:58;;;;;;;12.13;5.63;;;13.60;99.90;;;;;;5030193;28;20140;-66
2022/10/27 07:33:24;;;;;;;10.27;5.20;;;13.60;99.90;;;;;;5041779;28;20048;-66
2022/10/27 07:35:51;;;;;;;16.20;5.80;;;13.70;99.90;;;;;;5039245;28;20107;-66
2022/10/27 07:38:18;;;;;;;13.00;5.95;;;13.80;99.90;;;;;;5027220;28;20123;-66
2022/10/27 07:40:44;;;;;;;13.50;5.22;;;13.80;99.90;;;;;;5038061;28;20503;-66
2022/10/27 07:43:10;;;;;;;;;;;13.90;99.90;;;;;;5029226;28;20053;-69
2022/10/27 07:45:37;;;;;;;11.52;5.50;;;13.90;99.90;;;;;;5029154;28;19971;-71
2022/10/27 07:48:04;;;;;;;15.75;5.88;;;13.90;99.90;;;;;;5030427;28;21411;-69
2022/10/27 07:50:32;;;;;;;14.80;5.75;;;14.00;99.90;;;;;;5040779;28;20688;-69
2022/10/27 07:52:59;;;;;;;13.50;6.20;;;14.00;99.90;;;;;;5045366;28;20060;-69
2022/10/27 07:55:26;;;;;;;11.88;5.70;;;14.10;99.90;;;;;;5041584;28;20045;-70
2022/10/27 07:58:01;;;;;;;11.75;6.15;;;14.10;99.90;;;;;;5040457;28;20041;-71
2022/10/27 08:00:28;;;;;;;15.05;6.53;;;14.10;99.90;;;;;;5028438;28;20381;-68
2022/10/27 08:02:54;;;;;;;12.45;6.13;;;14.10;99.90;;;;;;5037433;28;20072;-68
2022/10/27 08:05:20;;;;;;;14.60;5.80;;;14.20;99.90;;;;;;5029259;28;20092;-70
2022/10/27 08:07:46;;;;;;;;;;;14.20;99.90;;;;;;5028411;28;20523;-69
2022/10/27 08:10:11;;;;;;;14.02;5.45;;;14.30;99.90;;;;;;5076104;28;20008;-72
2022/10/27 08:12:42;;;;;;;14.23;5.28;;;14.30;99.90;;;;;;5044028;28;20076;-71
2022/10/27 08:15:08;;;;;;;12.35;5.55;;;14.40;99.90;;;;;;5045312;28;20088;-68
2022/10/27 08:17:34;;;;;;;13.32;5.30;;;14.40;99.90;;;;;;5048625;28;20045;-69
2022/10/27 08:20:00;;;;;;;10.30;5.18;;;14.40;99.90;;;;;;5051711;28;20057;-68
2022/10/27 08:22:26;;;;;;;15.52;5.78;;;14.50;99.90;;;;;;5050084;28;20063;-69
2022/10/27 08:24:51;;;;;;;13.60;6.97;;;14.60;99.90;;;;;;5050850;28;20048;-67
2022/10/27 08:27:17;;;;;;;12.38;5.80;;;14.60;99.90;;;;;;5050696;28;20053;-66
2022/10/27 08:29:43;;;;;;;10.35;4.85;;;14.60;99.90;;;;;;5052415;28;20048;-67
2022/10/27 08:32:09;;;;;;;;;;;14.70;99.90;;;;;;5052903;28;20048;-67
2022/10/27 08:34:34;;;;;;;11.77;4.93;;;14.70;99.90;;;;;;5051603;28;19921;-67
2022/10/27 08:37:00;;;;;;;12.23;5.10;;;14.70;99.90;;;;;;5052085;28;20131;-69
2022/10/27 08:39:26;;;;;;;11.05;5.20;;;14.70;99.90;;;;;;5048302;28;20048;-66
2022/10/27 08:42:10;;;;;;;10.88;5.18;;;14.70;99.90;;;;;;5052189;28;20429;-67
2022/10/27 08:44:51;;;;;;;13.07;4.93;;;14.70;99.90;;;;;;5048714;28;20119;-66
2022/10/27 08:47:25;;;;;;;12.88;5.18;;;14.70;99.90;;;;;;5051699;28;20049;-70
2022/10/27 08:50:04;;;;;;;10.45;4.93;;;14.70;99.90;;;;;;5051714;28;20144;-67
2022/10/27 08:52:42;;;;;;;9.65;4.82;;;14.70;99.90;;;;;;5047848;28;20049;-69
2022/10/27 08:55:14;;;;;;;14.40;5.72;;;14.70;99.90;;;;;;5050404;28;20051;-66
2022/10/27 08:58:04;;;;;;;14.93;5.10;;;14.70;99.90;;;;;;5049172;28;20041;-65
2022/10/27 09:00:35;;;;;;;11.95;4.68;;;14.80;99.90;;;;;;5050453;28;20124;-65
2022/10/27 09:03:24;;;;;;;8.98;4.20;;;14.80;99.90;;;;;;5045371;28;20045;-66
2022/10/27 09:05:56;;;;;;;10.07;4.70;;;14.90;99.90;;;;;;5050871;28;20060;-66
2022/10/27 09:08:40;;;;;;;9.38;4.05;;;15.00;99.90;;;;;;5049408;28;20045;-68
2022/10/27 09:11:25;;;;;;;10.38;4.35;;;15.10;99.90;;;;;;5041823;28;20041;-70
2022/10/27 09:14:09;;;;;;;9.70;4.57;;;15.30;99.90;;;;;;5049755;28;20055;-68
2022/10/27 09:16:44;;;;;;;10.48;4.35;;;15.40;99.90;;;;;;5047849;28;20041;-67
2022/10/27 09:19:18;;;;;;;8.57;3.83;;;15.60;99.90;;;;;;5045795;28;20081;-67
2022/10/27 09:21:43;;;;;;;8.23;3.65;;;15.70;99.90;;;;;;5049870;28;20660;-67
2022/10/27 09:24:16;;;;;;;8.18;3.58;;;15.80;99.90;;;;;;5047516;28;20163;-67
2022/10/27 09:26:44;;;;;;;8.45;3.70;;;15.90;99.90;;;;;;5048187;28;20044;-66
2022/10/27 09:29:19;;;;;;;13.02;3.80;;;16.00;99.90;;;;;;5050676;28;20049;-67
2022/10/27 09:31:54;;;;;;;7.80;3.40;;;16.10;99.90;;;;;;5050882;28;20052;-68
2022/10/27 09:34:32;;;;;;;7.68;3.65;;;16.20;99.90;;;;;;5047294;28;20053;-69
2022/10/27 09:36:58;;;;;;;9.90;3.85;;;16.30;99.90;;;;;;5050607;28;20090;-68
2022/10/27 09:39:24;;;;;;;7.00;3.35;;;16.40;99.90;;;;;;5047766;28;20048;-67
2022/10/27 09:41:50;;;;;;;;;;;16.50;99.90;;;;;;5050214;28;20106;-68
2022/10/27 09:44:18;;;;;;;8.40;2.97;;;16.60;99.90;;;;;;5048738;28;19928;-69
2022/10/27 09:46:49;;;;;;;6.03;3.20;;;16.60;99.90;;;;;;5048282;28;20041;-66
2022/10/27 09:49:17;;;;;;;6.90;3.13;;;16.60;99.90;;;;;;5049369;28;20042;-69
2022/10/27 09:51:58;;;;;;;9.90;3.53;;;16.80;99.90;;;;;;5048830;28;20060;-68
2022/10/27 09:54:35;;;;;;;11.05;3.30;;;16.80;99.90;;;;;;5046252;28;20099;-66
2022/10/27 09:57:18;;;;;;;7.18;2.75;;;16.90;99.90;;;;;;5049592;28;20098;-67
2022/10/27 10:00:03;;;;;;;6.30;3.28;;;17.00;99.90;;;;;;5049522;28;20103;-67
2022/10/27 10:02:39;;;;;;;6.75;2.67;;;17.10;99.90;;;;;;5045805;28;20520;-66
2022/10/27 10:05:20;;;;;;;7.80;2.57;;;17.20;99.90;;;;;;5049970;28;20045;-66
2022/10/27 10:07:46;;;;;;;5.13;2.92;;;17.30;99.90;;;;;;5049109;28;20047;-66
2022/10/27 10:10:25;;;;;;;;;;;17.40;99.90;;;;;;5064746;28;20128;-67
2022/10/27 10:13:05;;;;;;;6.60;2.55;;;17.40;99.90;;;;;;5082988;28;20016;-67
2022/10/27 10:15:40;;;;;;;7.20;2.67;;;17.50;99.90;;;;;;5049945;28;20141;-68
2022/10/27 10:18:17;;;;;;;6.93;2.67;;;17.60;99.90;;;;;;5049853;28;20041;-67
2022/10/27 10:20:43;;;;;;;6.40;2.63;;;17.70;99.90;;;;;;5048465;28;20501;-68
2022/10/27 10:23:18;;;;;;;;;;;17.80;99.90;;;;;;5047460;28;20053;-66
2022/10/27 10:25:46;;;;;;;4.63;2.03;;;17.90;99.90;;;;;;5047081;28;20373;-68
2022/10/27 10:28:22;;;;;;;6.57;2.25;;;18.00;99.90;;;;;;5048193;28;20047;-68
2022/10/27 10:30:50;;;;;;;;;;;18.10;99.90;;;;;;5050136;28;20045;-70
2022/10/27 10:33:17;;;;;;;6.38;2.70;;;18.20;99.90;;;;;;5048887;28;20007;-67
2022/10/27 10:35:50;;;;;;;7.13;2.22;;;18.40;99.90;;;;;;5048077;28;20045;-69
2022/10/27 10:38:22;;;;;;;6.03;2.53;;;18.50;99.90;;;;;;5045631;28;20401;-67
2022/10/27 10:41:19;;;;;;;4.75;2.22;;;18.70;99.90;;;;;;5047272;28;20053;-71
2022/10/27 10:43:44;;;;;;;6.65;2.25;;;18.90;99.90;;;;;;5048708;28;20087;-70
2022/10/27 10:46:21;;;;;;;;;;;18.90;99.90;;;;;;5049934;28;20595;-70
2022/10/27 10:48:53;;;;;;;4.53;1.90;;;19.00;99.90;;;;;;5048016;28;19973;-69
2022/10/27 10:51:31;;;;;;;3.90;1.90;;;19.10;99.90;;;;;;5047348;28;20053;-68
2022/10/27 10:54:12;;;;;;;3.40;1.90;;;19.10;99.90;;;;;;5047453;28;20052;-68
2022/10/27 10:56:38;;;;;;;3.72;1.80;;;19.00;99.90;;;;;;5044557;28;20064;-67
2022/10/27 10:59:13;;;;;;;7.10;2.20;;;19.00;99.90;;;;;;5047126;28;20041;-66
2022/10/27 11:01:59;;;;;;;3.03;1.63;;;19.00;99.90;;;;;;5048528;28;20394;-66
2022/10/27 11:04:29;;;;;;;5.35;1.90;;;19.00;99.90;;;;;;5044043;28;20503;-69
2022/10/27 11:06:55;;;;;;;6.18;1.95;;;19.00;99.90;;;;;;5048348;28;20047;-71
2022/10/27 11:09:21;;;;;;;;;;;19.00;99.90;;;;;;5079483;28;20041;-72
2022/10/27 11:11:48;;;;;;;3.80;1.55;;;19.00;99.90;;;;;;5046902;28;19925;-69
2022/10/27 11:14:17;;;;;;;4.40;1.50;;;19.00;99.90;;;;;;5044298;28;20166;-68
2022/10/27 11:16:51;;;;;;;9.65;2.03;;;19.10;99.90;;;;;;5043459;28;20041;-68
2022/10/27 11:19:19;;;;;;;4.45;1.73;;;19.10;99.90;;;;;;5044969;28;20152;-70
2022/10/27 11:21:59;;;;;;;3.83;1.50;;;19.20;99.90;;;;;;5047041;28;20048;-68
2022/10/27 11:24:57;;;;;;;4.57;1.60;;;19.40;99.90;;;;;;5046680;28;20084;-73
2022/10/27 11:28:00;;;;;;;3.90;1.50;;;19.60;99.90;;;;;;5044199;28;20049;-72
2022/10/27 11:30:27;;;;;;;5.38;1.67;;;20.00;99.90;;;;;;5041570;28;20056;-72
2022/10/27 11:33:02;;;;;;;5.38;1.65;;;20.30;99.90;;;;;;5044966;28;20060;-68
2022/10/27 11:35:52;;;;;;;3.85;1.55;;;20.40;99.90;;;;;;5039480;28;20593;-73
2022/10/27 11:38:27;;;;;;;3.20;1.60;;;20.30;99.90;;;;;;5043774;28;20045;-68
2022/10/27 11:41:01;;;;;;;2.97;1.45;;;20.20;99.90;;;;;;5045192;28;20053;-71
2022/10/27 11:43:30;;;;;;;3.45;1.55;;;20.00;99.90;;;;;;5067600;28;20076;-70
2022/10/27 11:46:16;;;;;;;3.53;1.60;;;19.80;99.90;;;;;;5049905;28;20045;-67
2022/10/27 11:48:52;;;;;;;6.30;1.63;;;19.70;99.90;;;;;;5031663;28;20141;-66
2022/10/27 11:51:28;;;;;;;3.58;1.48;;;19.50;99.90;;;;;;5049596;28;20059;-67
2022/10/27 11:53:55;;;;;;;8.35;1.67;;;19.40;99.90;;;;;;5042308;28;20498;-66
2022/10/27 11:56:38;;;;;;;3.47;1.60;;;19.40;99.90;;;;;;5052244;28;20159;-67
2022/10/27 11:59:28;;;;;;;7.28;1.67;;;19.40;99.90;;;;;;5053742;28;20037;-66
2022/10/27 12:02:12;;;;;;;3.58;1.52;;;19.30;99.90;;;;;;5046409;28;20061;-66
2022/10/27 12:05:08;;;;;;;3.30;1.60;;;19.30;99.90;;;;;;5032674;28;20045;-66
2022/10/27 12:07:37;;;;;;;5.85;1.70;;;19.30;99.90;;;;;;5031716;28;20053;-70
2022/10/27 12:10:26;;;;;;;8.10;2.20;;;19.20;99.90;;;;;;5032334;28;20056;-66
2022/10/27 12:13:36;;;;;;;6.05;2.05;;;19.20;99.90;;;;;;5032940;28;20068;-67
2022/10/27 12:16:40;;;;;;;3.35;1.75;;;19.20;99.90;;;;;;5012798;28;20628;-66
2022/10/27 12:19:32;;;;;;;2.70;1.50;;;19.20;99.90;;;;;;5048899;28;20068;-70
2022/10/27 12:22:26;;;;;;;6.28;1.60;;;19.30;99.90;;;;;;5053167;28;20089;-67
2022/10/27 12:25:03;;;;;;;5.55;1.77;;;19.40;99.90;;;;;;5051199;28;20049;-68
2022/10/27 12:27:35;;;;;;;6.55;1.80;;;19.70;99.90;;;;;;5033938;28;20088;-69
2022/10/27 12:30:22;;;;;;;6.05;1.50;;;20.00;99.90;;;;;;5050445;28;20049;-67
2022/10/27 12:33:08;;;;;;;3.72;1.20;;;20.00;99.90;;;;;;5052561;28;20049;-66
2022/10/27 12:36:19;;;;;;;4.47;1.60;;;20.10;99.90;;;;;;5052238;28;20550;-68
2022/10/27 12:39:15;;;;;;;4.00;1.80;;;20.10;99.90;;;;;;5034704;28;20061;-67
2022/10/27 12:42:03;;;;;;;4.90;1.30;;;20.30;99.90;;;;;;5051925;28;20045;-68
2022/10/27 12:44:40;;;;;;;4.70;1.40;;;20.60;99.90;;;;;;5052810;28;20115;-70
2022/10/27 12:47:43;;;;;;;2.10;1.20;;;21.10;99.90;;;;;;5051743;28;20540;-69
2022/10/27 12:50:27;;;;;;;2.35;1.10;;;21.30;99.90;;;;;;5052610;28;20048;-67
2022/10/27 12:53:20;;;;;;;3.42;1.15;;;21.20;99.90;;;;;;5049460;28;20106;-67
2022/10/27 12:55:52;;;;;;;4.20;1.40;;;21.00;99.90;;;;;;5026388;28;20629;-68
2022/10/27 12:58:46;;;;;;;3.88;1.40;;;20.80;99.90;;;;;;5050996;28;20489;-68
2022/10/27 13:01:39;;;;;;;5.07;1.27;;;20.60;99.90;;;;;;5052172;28;20055;-66
2022/10/27 13:04:30;;;;;;;4.65;1.40;;;20.50;99.90;;;;;;5051756;28;20049;-67
2022/10/27 13:07:05;;;;;;;2.17;1.10;;;20.40;99.90;;;;;;5051991;28;20159;-67